sensor_id;sensor_type;location;lat;lon;timestamp;P1;durP1;ratioP1;P2;durP2;ratioP2
19207;SDS011;9737;59.466;18.036;2022-08-18T00:01:07;27.27;;;19.13;;
19207;SDS011;9737;59.466;18.036;2022-08-18T00:03:41;26.63;;;19.70;;
19207;SDS011;9737;59.466;18.036;2022-08-18T00:06:24;30.67;;;19.67;;
19207;SDS011;9737;59.466;18.036;2022-08-18T00:08:55;28.88;;;20.13;;
19207;SDS011;9737;59.466;18.036;2022-08-18T00:11:24;28.23;;;19.25;;
19207;SDS011;9737;59.466;18.036;2022-08-18T00:13:52;32.15;;;20.95;;
19207;SDS011;9737;59.466;18.036;2022-08-18T00:16:21;26.98;;;20.13;;
19207;SDS011;9737;59.466;18.036;2022-08-18T00:18:50;27.30;;;19.65;;
19207;SDS011;9737;59.466;18.036;2022-08-18T00:21:18;27.50;;;20.33;;
19207;SDS011;9737;59.466;18.036;2022-08-18T00:23:46;31.75;;;21.02;;
19207;SDS011;9737;59.466;18.036;2022-08-18T00:26:14;25.75;;;19.40;;
19207;SDS011;9737;59.466;18.036;2022-08-18T00:28:43;29.58;;;20.35;;
19207;SDS011;9737;59.466;18.036;2022-08-18T00:31:11;31.35;;;20.50;;
19207;SDS011;9737;59.466;18.036;2022-08-18T00:33:39;32.35;;;19.75;;
19207;SDS011;9737;59.466;18.036;2022-08-18T00:36:11;31.27;;;19.75;;
19207;SDS011;9737;59.466;18.036;2022-08-18T00:38:39;27.73;;;19.38;;
19207;SDS011;9737;59.466;18.036;2022-08-18T00:41:07;32.15;;;20.65;;
19207;SDS011;9737;59.466;18.036;2022-08-18T00:43:37;30.08;;;20.13;;
19207;SDS011;9737;59.466;18.036;2022-08-18T00:46:08;28.75;;;20.98;;
19207;SDS011;9737;59.466;18.036;2022-08-18T00:48:40;30.52;;;20.40;;
19207;SDS011;9737;59.466;18.036;2022-08-18T00:51:16;30.75;;;21.13;;
19207;SDS011;9737;59.466;18.036;2022-08-18T00:53:48;30.60;;;21.67;;
19207;SDS011;9737;59.466;18.036;2022-08-18T00:56:20;30.63;;;20.50;;
19207;SDS011;9737;59.466;18.036;2022-08-18T00:58:51;32.47;;;21.30;;
19207;SDS011;9737;59.466;18.036;2022-08-18T01:01:25;33.03;;;20.17;;
19207;SDS011;9737;59.466;18.036;2022-08-18T01:03:59;28.60;;;20.50;;
19207;SDS011;9737;59.466;18.036;2022-08-18T01:06:36;29.77;;;19.77;;
19207;SDS011;9737;59.466;18.036;2022-08-18T01:09:07;29.13;;;21.08;;
19207;SDS011;9737;59.466;18.036;2022-08-18T01:11:35;31.08;;;20.92;;
19207;SDS011;9737;59.466;18.036;2022-08-18T01:14:05;28.42;;;21.05;;
19207;SDS011;9737;59.466;18.036;2022-08-18T01:16:36;36.28;;;20.92;;
19207;SDS011;9737;59.466;18.036;2022-08-18T01:19:23;32.67;;;21.45;;
19207;SDS011;9737;59.466;18.036;2022-08-18T01:22:13;33.05;;;20.95;;
19207;SDS011;9737;59.466;18.036;2022-08-18T01:24:49;30.30;;;20.15;;
19207;SDS011;9737;59.466;18.036;2022-08-18T01:27:36;31.27;;;21.23;;
19207;SDS011;9737;59.466;18.036;2022-08-18T01:30:08;31.63;;;20.73;;
19207;SDS011;9737;59.466;18.036;2022-08-18T01:32:38;29.25;;;21.13;;
19207;SDS011;9737;59.466;18.036;2022-08-18T01:35:08;33.08;;;21.10;;
19207;SDS011;9737;59.466;18.036;2022-08-18T01:37:37;33.17;;;23.13;;
19207;SDS011;9737;59.466;18.036;2022-08-18T01:40:11;32.83;;;20.80;;
19207;SDS011;9737;59.466;18.036;2022-08-18T01:43:00;32.58;;;21.05;;
19207;SDS011;9737;59.466;18.036;2022-08-18T01:45:31;29.23;;;20.65;;
19207;SDS011;9737;59.466;18.036;2022-08-18T01:48:00;31.67;;;21.42;;
19207;SDS011;9737;59.466;18.036;2022-08-18T01:50:30;33.38;;;21.08;;
19207;SDS011;9737;59.466;18.036;2022-08-18T01:53:01;33.35;;;21.20;;
19207;SDS011;9737;59.466;18.036;2022-08-18T01:55:32;33.10;;;21.55;;
19207;SDS011;9737;59.466;18.036;2022-08-18T01:58:02;33.17;;;20.25;;
19207;SDS011;9737;59.466;18.036;2022-08-18T02:00:30;30.05;;;20.30;;
19207;SDS011;9737;59.466;18.036;2022-08-18T02:02:59;30.42;;;20.65;;
19207;SDS011;9737;59.466;18.036;2022-08-18T02:05:31;32.05;;;21.08;;
19207;SDS011;9737;59.466;18.036;2022-08-18T02:08:03;33.85;;;22.02;;
19207;SDS011;9737;59.466;18.036;2022-08-18T02:10:33;33.08;;;21.95;;
19207;SDS011;9737;59.466;18.036;2022-08-18T02:13:04;31.85;;;21.67;;
19207;SDS011;9737;59.466;18.036;2022-08-18T02:15:33;33.60;;;20.70;;
19207;SDS011;9737;59.466;18.036;2022-08-18T02:18:04;31.73;;;21.33;;
19207;SDS011;9737;59.466;18.036;2022-08-18T02:20:32;29.08;;;20.55;;
19207;SDS011;9737;59.466;18.036;2022-08-18T02:23:03;31.33;;;21.45;;
19207;SDS011;9737;59.466;18.036;2022-08-18T02:25:31;30.60;;;19.52;;
19207;SDS011;9737;59.466;18.036;2022-08-18T02:28:01;32.90;;;21.13;;
19207;SDS011;9737;59.466;18.036;2022-08-18T02:30:30;34.28;;;21.65;;
19207;SDS011;9737;59.466;18.036;2022-08-18T02:32:58;34.65;;;22.48;;
19207;SDS011;9737;59.466;18.036;2022-08-18T02:35:26;31.63;;;21.75;;
19207;SDS011;9737;59.466;18.036;2022-08-18T02:37:57;35.35;;;22.55;;
19207;SDS011;9737;59.466;18.036;2022-08-18T02:40:25;33.22;;;21.88;;
19207;SDS011;9737;59.466;18.036;2022-08-18T02:42:54;39.03;;;24.27;;
19207;SDS011;9737;59.466;18.036;2022-08-18T02:45:23;37.53;;;23.98;;
19207;SDS011;9737;59.466;18.036;2022-08-18T02:47:52;32.60;;;22.35;;
19207;SDS011;9737;59.466;18.036;2022-08-18T02:50:21;36.78;;;23.33;;
19207;SDS011;9737;59.466;18.036;2022-08-18T02:52:50;33.97;;;22.77;;
19207;SDS011;9737;59.466;18.036;2022-08-18T02:55:19;36.88;;;23.33;;
19207;SDS011;9737;59.466;18.036;2022-08-18T02:57:48;35.20;;;22.48;;
19207;SDS011;9737;59.466;18.036;2022-08-18T03:00:17;33.78;;;21.75;;
19207;SDS011;9737;59.466;18.036;2022-08-18T03:02:47;30.60;;;21.50;;
19207;SDS011;9737;59.466;18.036;2022-08-18T03:05:19;31.10;;;21.48;;
19207;SDS011;9737;59.466;18.036;2022-08-18T03:07:47;34.17;;;21.88;;
19207;SDS011;9737;59.466;18.036;2022-08-18T03:10:16;34.08;;;22.35;;
19207;SDS011;9737;59.466;18.036;2022-08-18T03:12:59;31.33;;;21.00;;
19207;SDS011;9737;59.466;18.036;2022-08-18T03:15:28;34.53;;;22.67;;
19207;SDS011;9737;59.466;18.036;2022-08-18T03:17:57;36.22;;;22.88;;
19207;SDS011;9737;59.466;18.036;2022-08-18T03:20:26;32.83;;;23.05;;
19207;SDS011;9737;59.466;18.036;2022-08-18T03:22:57;35.47;;;22.83;;
19207;SDS011;9737;59.466;18.036;2022-08-18T03:25:34;31.10;;;20.85;;
19207;SDS011;9737;59.466;18.036;2022-08-18T03:28:03;34.47;;;22.42;;
19207;SDS011;9737;59.466;18.036;2022-08-18T03:30:32;34.08;;;22.60;;
19207;SDS011;9737;59.466;18.036;2022-08-18T03:33:01;33.78;;;22.52;;
19207;SDS011;9737;59.466;18.036;2022-08-18T03:35:30;31.35;;;22.20;;
19207;SDS011;9737;59.466;18.036;2022-08-18T03:38:01;31.48;;;22.17;;
19207;SDS011;9737;59.466;18.036;2022-08-18T03:40:30;32.58;;;22.23;;
19207;SDS011;9737;59.466;18.036;2022-08-18T03:43:01;33.70;;;22.85;;
19207;SDS011;9737;59.466;18.036;2022-08-18T03:45:52;38.65;;;23.50;;
19207;SDS011;9737;59.466;18.036;2022-08-18T03:48:27;35.63;;;22.63;;
19207;SDS011;9737;59.466;18.036;2022-08-18T03:51:01;34.65;;;23.45;;
19207;SDS011;9737;59.466;18.036;2022-08-18T03:53:31;37.85;;;23.25;;
19207;SDS011;9737;59.466;18.036;2022-08-18T03:55:59;33.38;;;22.48;;
19207;SDS011;9737;59.466;18.036;2022-08-18T03:58:31;34.80;;;22.60;;
19207;SDS011;9737;59.466;18.036;2022-08-18T04:01:21;31.40;;;22.20;;
19207;SDS011;9737;59.466;18.036;2022-08-18T04:03:56;35.67;;;23.08;;
19207;SDS011;9737;59.466;18.036;2022-08-18T04:06:28;37.28;;;23.60;;
19207;SDS011;9737;59.466;18.036;2022-08-18T04:08:59;36.67;;;24.15;;
19207;SDS011;9737;59.466;18.036;2022-08-18T04:11:29;36.58;;;23.30;;
19207;SDS011;9737;59.466;18.036;2022-08-18T04:14:02;32.33;;;22.45;;
19207;SDS011;9737;59.466;18.036;2022-08-18T04:16:32;34.05;;;22.90;;
19207;SDS011;9737;59.466;18.036;2022-08-18T04:19:01;29.15;;;20.05;;
19207;SDS011;9737;59.466;18.036;2022-08-18T04:21:30;31.23;;;20.98;;
19207;SDS011;9737;59.466;18.036;2022-08-18T04:24:00;29.80;;;21.23;;
19207;SDS011;9737;59.466;18.036;2022-08-18T04:26:31;30.60;;;21.58;;
19207;SDS011;9737;59.466;18.036;2022-08-18T04:29:02;31.85;;;21.05;;
19207;SDS011;9737;59.466;18.036;2022-08-18T04:31:32;32.28;;;21.88;;
19207;SDS011;9737;59.466;18.036;2022-08-18T04:34:02;29.98;;;20.10;;
19207;SDS011;9737;59.466;18.036;2022-08-18T04:36:31;32.50;;;21.52;;
19207;SDS011;9737;59.466;18.036;2022-08-18T04:39:02;31.30;;;20.95;;
19207;SDS011;9737;59.466;18.036;2022-08-18T04:41:32;29.95;;;21.67;;
19207;SDS011;9737;59.466;18.036;2022-08-18T04:44:01;34.30;;;22.38;;
19207;SDS011;9737;59.466;18.036;2022-08-18T04:46:33;35.03;;;23.38;;
19207;SDS011;9737;59.466;18.036;2022-08-18T04:49:04;31.88;;;21.45;;
19207;SDS011;9737;59.466;18.036;2022-08-18T04:51:32;30.58;;;21.25;;
19207;SDS011;9737;59.466;18.036;2022-08-18T04:54:22;34.53;;;23.27;;
19207;SDS011;9737;59.466;18.036;2022-08-18T04:56:50;30.35;;;21.98;;
19207;SDS011;9737;59.466;18.036;2022-08-18T04:59:18;29.98;;;21.55;;
19207;SDS011;9737;59.466;18.036;2022-08-18T05:01:46;31.52;;;22.38;;
19207;SDS011;9737;59.466;18.036;2022-08-18T05:04:16;31.73;;;22.35;;
19207;SDS011;9737;59.466;18.036;2022-08-18T05:06:44;32.88;;;21.05;;
19207;SDS011;9737;59.466;18.036;2022-08-18T05:09:13;30.08;;;20.58;;
19207;SDS011;9737;59.466;18.036;2022-08-18T05:11:48;31.48;;;21.52;;
19207;SDS011;9737;59.466;18.036;2022-08-18T05:14:17;32.65;;;21.60;;
19207;SDS011;9737;59.466;18.036;2022-08-18T05:16:45;29.58;;;20.85;;
19207;SDS011;9737;59.466;18.036;2022-08-18T05:19:17;27.95;;;19.75;;
19207;SDS011;9737;59.466;18.036;2022-08-18T05:21:51;27.98;;;20.10;;
19207;SDS011;9737;59.466;18.036;2022-08-18T05:24:26;28.73;;;19.90;;
19207;SDS011;9737;59.466;18.036;2022-08-18T05:27:03;26.02;;;19.85;;
19207;SDS011;9737;59.466;18.036;2022-08-18T05:29:33;24.90;;;18.90;;
19207;SDS011;9737;59.466;18.036;2022-08-18T05:32:12;24.50;;;18.13;;
19207;SDS011;9737;59.466;18.036;2022-08-18T05:35:03;24.95;;;18.25;;
19207;SDS011;9737;59.466;18.036;2022-08-18T05:37:35;26.20;;;17.90;;
19207;SDS011;9737;59.466;18.036;2022-08-18T05:40:09;20.10;;;16.10;;
19207;SDS011;9737;59.466;18.036;2022-08-18T05:42:40;20.65;;;16.05;;
19207;SDS011;9737;59.466;18.036;2022-08-18T05:45:09;21.90;;;16.88;;
19207;SDS011;9737;59.466;18.036;2022-08-18T05:47:42;30.92;;;17.77;;
19207;SDS011;9737;59.466;18.036;2022-08-18T05:50:13;24.20;;;16.80;;
19207;SDS011;9737;59.466;18.036;2022-08-18T05:52:47;25.70;;;19.17;;
19207;SDS011;9737;59.466;18.036;2022-08-18T05:55:20;27.52;;;18.98;;
19207;SDS011;9737;59.466;18.036;2022-08-18T05:58:14;28.85;;;18.60;;
19207;SDS011;9737;59.466;18.036;2022-08-18T06:00:46;27.23;;;17.42;;
19207;SDS011;9737;59.466;18.036;2022-08-18T06:03:26;23.73;;;16.27;;
19207;SDS011;9737;59.466;18.036;2022-08-18T06:06:14;25.23;;;16.40;;
19207;SDS011;9737;59.466;18.036;2022-08-18T06:08:46;21.88;;;15.85;;
19207;SDS011;9737;59.466;18.036;2022-08-18T06:11:19;23.90;;;17.08;;
19207;SDS011;9737;59.466;18.036;2022-08-18T06:13:48;20.80;;;16.10;;
19207;SDS011;9737;59.466;18.036;2022-08-18T06:16:33;21.40;;;15.80;;
19207;SDS011;9737;59.466;18.036;2022-08-18T06:19:17;25.52;;;17.15;;
19207;SDS011;9737;59.466;18.036;2022-08-18T06:21:59;24.75;;;16.17;;
19207;SDS011;9737;59.466;18.036;2022-08-18T06:24:40;22.55;;;14.95;;
19207;SDS011;9737;59.466;18.036;2022-08-18T06:27:17;20.95;;;15.02;;
19207;SDS011;9737;59.466;18.036;2022-08-18T06:29:59;20.13;;;14.48;;
19207;SDS011;9737;59.466;18.036;2022-08-18T06:32:36;18.95;;;14.07;;
19207;SDS011;9737;59.466;18.036;2022-08-18T06:35:23;20.83;;;14.35;;
19207;SDS011;9737;59.466;18.036;2022-08-18T06:38:04;18.38;;;13.60;;
19207;SDS011;9737;59.466;18.036;2022-08-18T06:40:59;20.00;;;14.52;;
19207;SDS011;9737;59.466;18.036;2022-08-18T06:43:28;16.20;;;13.10;;
19207;SDS011;9737;59.466;18.036;2022-08-18T06:45:59;18.42;;;12.98;;
19207;SDS011;9737;59.466;18.036;2022-08-18T06:48:36;17.67;;;13.43;;
19207;SDS011;9737;59.466;18.036;2022-08-18T06:51:11;19.08;;;13.45;;
19207;SDS011;9737;59.466;18.036;2022-08-18T06:53:50;19.20;;;12.73;;
19207;SDS011;9737;59.466;18.036;2022-08-18T06:56:22;19.08;;;12.80;;
19207;SDS011;9737;59.466;18.036;2022-08-18T06:58:54;17.08;;;12.40;;
19207;SDS011;9737;59.466;18.036;2022-08-18T07:01:41;17.83;;;12.55;;
19207;SDS011;9737;59.466;18.036;2022-08-18T07:04:13;15.32;;;11.32;;
19207;SDS011;9737;59.466;18.036;2022-08-18T07:07:13;20.80;;;11.95;;
19207;SDS011;9737;59.466;18.036;2022-08-18T07:09:47;13.95;;;10.38;;
19207;SDS011;9737;59.466;18.036;2022-08-18T07:12:20;14.80;;;10.68;;
19207;SDS011;9737;59.466;18.036;2022-08-18T07:14:56;14.27;;;10.82;;
19207;SDS011;9737;59.466;18.036;2022-08-18T07:17:27;18.02;;;10.82;;
19207;SDS011;9737;59.466;18.036;2022-08-18T07:20:16;12.93;;;10.15;;
19207;SDS011;9737;59.466;18.036;2022-08-18T07:22:50;18.27;;;10.43;;
19207;SDS011;9737;59.466;18.036;2022-08-18T07:25:24;13.07;;;9.88;;
19207;SDS011;9737;59.466;18.036;2022-08-18T07:27:54;13.00;;;9.52;;
19207;SDS011;9737;59.466;18.036;2022-08-18T07:30:27;12.05;;;9.30;;
19207;SDS011;9737;59.466;18.036;2022-08-18T07:33:03;11.98;;;9.05;;
19207;SDS011;9737;59.466;18.036;2022-08-18T07:35:41;11.82;;;9.40;;
19207;SDS011;9737;59.466;18.036;2022-08-18T07:38:14;15.30;;;9.60;;
19207;SDS011;9737;59.466;18.036;2022-08-18T07:41:09;12.88;;;9.48;;
19207;SDS011;9737;59.466;18.036;2022-08-18T07:43:42;14.45;;;9.50;;
19207;SDS011;9737;59.466;18.036;2022-08-18T07:46:22;15.25;;;9.23;;
19207;SDS011;9737;59.466;18.036;2022-08-18T07:48:56;12.90;;;8.38;;
19207;SDS011;9737;59.466;18.036;2022-08-18T07:51:29;10.68;;;7.85;;
19207;SDS011;9737;59.466;18.036;2022-08-18T07:54:12;11.85;;;7.47;;
19207;SDS011;9737;59.466;18.036;2022-08-18T07:57:11;11.50;;;7.10;;
19207;SDS011;9737;59.466;18.036;2022-08-18T07:59:47;10.55;;;7.20;;
19207;SDS011;9737;59.466;18.036;2022-08-18T08:02:25;10.18;;;7.47;;
19207;SDS011;9737;59.466;18.036;2022-08-18T08:05:03;10.10;;;7.60;;
19207;SDS011;9737;59.466;18.036;2022-08-18T08:07:43;10.20;;;7.30;;
19207;SDS011;9737;59.466;18.036;2022-08-18T08:10:31;9.82;;;7.20;;
19207;SDS011;9737;59.466;18.036;2022-08-18T08:13:11;9.10;;;7.30;;
19207;SDS011;9737;59.466;18.036;2022-08-18T08:16:05;11.43;;;6.85;;
19207;SDS011;9737;59.466;18.036;2022-08-18T08:18:44;9.30;;;6.90;;
19207;SDS011;9737;59.466;18.036;2022-08-18T08:21:22;9.73;;;7.30;;
19207;SDS011;9737;59.466;18.036;2022-08-18T08:23:58;10.90;;;7.18;;
19207;SDS011;9737;59.466;18.036;2022-08-18T08:26:40;12.60;;;7.30;;
19207;SDS011;9737;59.466;18.036;2022-08-18T08:29:21;9.07;;;6.72;;
19207;SDS011;9737;59.466;18.036;2022-08-18T08:32:03;9.30;;;7.32;;
19207;SDS011;9737;59.466;18.036;2022-08-18T08:34:34;10.88;;;7.50;;
19207;SDS011;9737;59.466;18.036;2022-08-18T08:37:11;11.13;;;7.65;;
19207;SDS011;9737;59.466;18.036;2022-08-18T08:39:41;14.27;;;7.55;;
19207;SDS011;9737;59.466;18.036;2022-08-18T08:42:16;10.00;;;7.35;;
19207;SDS011;9737;59.466;18.036;2022-08-18T08:45:00;10.05;;;7.05;;
19207;SDS011;9737;59.466;18.036;2022-08-18T08:47:33;12.57;;;7.40;;
19207;SDS011;9737;59.466;18.036;2022-08-18T08:50:06;12.88;;;6.90;;
19207;SDS011;9737;59.466;18.036;2022-08-18T08:52:39;11.48;;;6.88;;
19207;SDS011;9737;59.466;18.036;2022-08-18T08:55:14;10.77;;;7.07;;
19207;SDS011;9737;59.466;18.036;2022-08-18T08:57:48;8.27;;;6.63;;
19207;SDS011;9737;59.466;18.036;2022-08-18T09:00:24;11.82;;;6.53;;
19207;SDS011;9737;59.466;18.036;2022-08-18T09:03:20;13.75;;;6.65;;
19207;SDS011;9737;59.466;18.036;2022-08-18T09:05:59;13.55;;;6.55;;
19207;SDS011;9737;59.466;18.036;2022-08-18T09:08:42;12.68;;;6.60;;
19207;SDS011;9737;59.466;18.036;2022-08-18T09:11:24;11.77;;;6.50;;
19207;SDS011;9737;59.466;18.036;2022-08-18T09:17:15;7.50;;;5.78;;
19207;SDS011;9737;59.466;18.036;2022-08-18T09:20:03;7.18;;;5.70;;
19207;SDS011;9737;59.466;18.036;2022-08-18T09:22:44;9.57;;;5.88;;
19207;SDS011;9737;59.466;18.036;2022-08-18T09:25:31;9.90;;;5.75;;
19207;SDS011;9737;59.466;18.036;2022-08-18T09:28:11;9.10;;;5.10;;
19207;SDS011;9737;59.466;18.036;2022-08-18T09:30:52;11.57;;;5.60;;
19207;SDS011;9737;59.466;18.036;2022-08-18T09:33:50;7.90;;;5.20;;
19207;SDS011;9737;59.466;18.036;2022-08-18T09:36:42;6.75;;;5.50;;
19207;SDS011;9737;59.466;18.036;2022-08-18T09:39:25;7.15;;;5.07;;
19207;SDS011;9737;59.466;18.036;2022-08-18T09:42:26;9.05;;;5.00;;
19207;SDS011;9737;59.466;18.036;2022-08-18T09:48:24;5.88;;;4.90;;
19207;SDS011;9737;59.466;18.036;2022-08-18T09:51:14;6.53;;;4.50;;
19207;SDS011;9737;59.466;18.036;2022-08-18T09:54:06;8.07;;;4.50;;
19207;SDS011;9737;59.466;18.036;2022-08-18T09:59:54;5.43;;;4.32;;
19207;SDS011;9737;59.466;18.036;2022-08-18T10:05:36;6.82;;;4.35;;
19207;SDS011;9737;59.466;18.036;2022-08-18T10:08:31;9.07;;;4.60;;
19207;SDS011;9737;59.466;18.036;2022-08-18T10:11:32;5.57;;;3.72;;
19207;SDS011;9737;59.466;18.036;2022-08-18T10:14:31;8.38;;;3.97;;
19207;SDS011;9737;59.466;18.036;2022-08-18T10:17:18;5.63;;;4.10;;
19207;SDS011;9737;59.466;18.036;2022-08-18T10:20:02;5.55;;;3.90;;
19207;SDS011;9737;59.466;18.036;2022-08-18T10:22:52;4.97;;;3.85;;
19207;SDS011;9737;59.466;18.036;2022-08-18T10:31:20;6.30;;;4.30;;
19207;SDS011;9737;59.466;18.036;2022-08-18T10:33:57;7.05;;;4.50;;
19207;SDS011;9737;59.466;18.036;2022-08-18T10:36:49;5.13;;;4.50;;
19207;SDS011;9737;59.466;18.036;2022-08-18T10:39:26;6.05;;;4.70;;
19207;SDS011;9737;59.466;18.036;2022-08-18T10:42:19;7.20;;;4.45;;
19207;SDS011;9737;59.466;18.036;2022-08-18T10:45:07;6.95;;;4.30;;
19207;SDS011;9737;59.466;18.036;2022-08-18T10:47:57;7.35;;;4.10;;
19207;SDS011;9737;59.466;18.036;2022-08-18T10:50:29;6.65;;;4.45;;
19207;SDS011;9737;59.466;18.036;2022-08-18T10:53:07;7.13;;;4.53;;
19207;SDS011;9737;59.466;18.036;2022-08-18T10:56:02;8.00;;;4.15;;
19207;SDS011;9737;59.466;18.036;2022-08-18T10:58:45;5.53;;;4.60;;
19207;SDS011;9737;59.466;18.036;2022-08-18T11:01:31;6.50;;;4.40;;
19207;SDS011;9737;59.466;18.036;2022-08-18T11:04:22;6.05;;;4.43;;
19207;SDS011;9737;59.466;18.036;2022-08-18T11:07:04;7.13;;;4.80;;
19207;SDS011;9737;59.466;18.036;2022-08-18T11:09:38;5.82;;;4.07;;
19207;SDS011;9737;59.466;18.036;2022-08-18T11:12:39;5.82;;;4.70;;
19207;SDS011;9737;59.466;18.036;2022-08-18T11:15:25;5.90;;;4.65;;
19207;SDS011;9737;59.466;18.036;2022-08-18T11:18:07;7.22;;;5.15;;
19207;SDS011;9737;59.466;18.036;2022-08-18T11:20:45;7.38;;;5.07;;
19207;SDS011;9737;59.466;18.036;2022-08-18T11:23:15;8.38;;;5.18;;
19207;SDS011;9737;59.466;18.036;2022-08-18T11:25:44;7.80;;;5.53;;
19207;SDS011;9737;59.466;18.036;2022-08-18T11:28:33;6.68;;;5.20;;
19207;SDS011;9737;59.466;18.036;2022-08-18T11:31:11;7.63;;;5.43;;
19207;SDS011;9737;59.466;18.036;2022-08-18T11:33:40;10.70;;;5.30;;
19207;SDS011;9737;59.466;18.036;2022-08-18T11:36:09;6.93;;;5.53;;
19207;SDS011;9737;59.466;18.036;2022-08-18T11:38:37;9.00;;;5.70;;
19207;SDS011;9737;59.466;18.036;2022-08-18T11:41:11;8.82;;;6.03;;
19207;SDS011;9737;59.466;18.036;2022-08-18T11:43:44;5.70;;;5.10;;
19207;SDS011;9737;59.466;18.036;2022-08-18T11:46:22;7.18;;;5.30;;
19207;SDS011;9737;59.466;18.036;2022-08-18T11:49:00;8.48;;;5.38;;
19207;SDS011;9737;59.466;18.036;2022-08-18T11:51:52;8.55;;;5.35;;
19207;SDS011;9737;59.466;18.036;2022-08-18T11:54:34;6.55;;;4.95;;
19207;SDS011;9737;59.466;18.036;2022-08-18T11:57:26;9.30;;;5.40;;
19207;SDS011;9737;59.466;18.036;2022-08-18T11:59:57;7.85;;;5.40;;
19207;SDS011;9737;59.466;18.036;2022-08-18T12:02:28;6.97;;;5.22;;
19207;SDS011;9737;59.466;18.036;2022-08-18T12:04:58;8.73;;;5.30;;
19207;SDS011;9737;59.466;18.036;2022-08-18T12:07:36;6.82;;;5.30;;
19207;SDS011;9737;59.466;18.036;2022-08-18T12:10:24;9.45;;;5.85;;
19207;SDS011;9737;59.466;18.036;2022-08-18T12:13:01;9.02;;;6.50;;
19207;SDS011;9737;59.466;18.036;2022-08-18T12:15:32;10.02;;;6.50;;
19207;SDS011;9737;59.466;18.036;2022-08-18T12:18:14;9.07;;;6.63;;
19207;SDS011;9737;59.466;18.036;2022-08-18T12:20:51;10.57;;;6.70;;
19207;SDS011;9737;59.466;18.036;2022-08-18T12:23:20;11.93;;;6.57;;
19207;SDS011;9737;59.466;18.036;2022-08-18T12:25:48;11.35;;;6.88;;
19207;SDS011;9737;59.466;18.036;2022-08-18T12:28:17;8.07;;;7.03;;
19207;SDS011;9737;59.466;18.036;2022-08-18T12:31:07;9.43;;;7.10;;
19207;SDS011;9737;59.466;18.036;2022-08-18T12:33:51;9.93;;;6.90;;
19207;SDS011;9737;59.466;18.036;2022-08-18T12:36:29;10.32;;;7.10;;
19207;SDS011;9737;59.466;18.036;2022-08-18T12:38:59;11.55;;;7.18;;
19207;SDS011;9737;59.466;18.036;2022-08-18T12:41:28;7.97;;;7.15;;
19207;SDS011;9737;59.466;18.036;2022-08-18T12:43:56;11.07;;;7.43;;
19207;SDS011;9737;59.466;18.036;2022-08-18T12:46:25;12.80;;;7.55;;
19207;SDS011;9737;59.466;18.036;2022-08-18T12:48:55;9.50;;;7.30;;
19207;SDS011;9737;59.466;18.036;2022-08-18T12:51:27;8.98;;;7.28;;
19207;SDS011;9737;59.466;18.036;2022-08-18T12:53:56;10.63;;;7.47;;
19207;SDS011;9737;59.466;18.036;2022-08-18T12:56:26;10.50;;;7.60;;
19207;SDS011;9737;59.466;18.036;2022-08-18T12:58:57;13.18;;;7.85;;
19207;SDS011;9737;59.466;18.036;2022-08-18T13:01:30;9.98;;;7.68;;
19207;SDS011;9737;59.466;18.036;2022-08-18T13:04:06;11.00;;;7.63;;
19207;SDS011;9737;59.466;18.036;2022-08-18T13:06:39;9.93;;;7.68;;
19207;SDS011;9737;59.466;18.036;2022-08-18T13:09:27;12.43;;;7.47;;
19207;SDS011;9737;59.466;18.036;2022-08-18T13:12:07;11.88;;;7.47;;
19207;SDS011;9737;59.466;18.036;2022-08-18T13:14:41;14.38;;;7.75;;
19207;SDS011;9737;59.466;18.036;2022-08-18T13:17:09;12.18;;;7.63;;
19207;SDS011;9737;59.466;18.036;2022-08-18T13:19:59;10.48;;;8.00;;
19207;SDS011;9737;59.466;18.036;2022-08-18T13:22:33;10.73;;;7.53;;
19207;SDS011;9737;59.466;18.036;2022-08-18T13:25:01;14.75;;;8.05;;
19207;SDS011;9737;59.466;18.036;2022-08-18T13:27:33;12.98;;;7.70;;
19207;SDS011;9737;59.466;18.036;2022-08-18T13:30:04;12.70;;;8.55;;
19207;SDS011;9737;59.466;18.036;2022-08-18T13:32:54;11.43;;;7.80;;
19207;SDS011;9737;59.466;18.036;2022-08-18T13:35:29;15.38;;;7.70;;
19207;SDS011;9737;59.466;18.036;2022-08-18T13:38:04;10.23;;;7.75;;
19207;SDS011;9737;59.466;18.036;2022-08-18T13:40:46;12.35;;;8.32;;
19207;SDS011;9737;59.466;18.036;2022-08-18T13:43:15;13.13;;;8.88;;
19207;SDS011;9737;59.466;18.036;2022-08-18T13:45:49;11.77;;;8.43;;
19207;SDS011;9737;59.466;18.036;2022-08-18T13:48:18;15.75;;;8.68;;
19207;SDS011;9737;59.466;18.036;2022-08-18T13:50:50;11.85;;;8.88;;
19207;SDS011;9737;59.466;18.036;2022-08-18T13:53:22;15.40;;;8.75;;
19207;SDS011;9737;59.466;18.036;2022-08-18T13:55:52;14.50;;;9.15;;
19207;SDS011;9737;59.466;18.036;2022-08-18T13:58:24;13.45;;;8.95;;
19207;SDS011;9737;59.466;18.036;2022-08-18T14:00:55;19.60;;;9.18;;
19207;SDS011;9737;59.466;18.036;2022-08-18T14:03:45;14.02;;;9.90;;
19207;SDS011;9737;59.466;18.036;2022-08-18T14:06:17;12.45;;;9.77;;
19207;SDS011;9737;59.466;18.036;2022-08-18T14:08:50;16.27;;;10.02;;
19207;SDS011;9737;59.466;18.036;2022-08-18T14:11:19;13.20;;;10.30;;
19207;SDS011;9737;59.466;18.036;2022-08-18T14:13:58;12.40;;;10.13;;
19207;SDS011;9737;59.466;18.036;2022-08-18T14:16:27;19.25;;;10.88;;
19207;SDS011;9737;59.466;18.036;2022-08-18T14:18:56;13.15;;;10.93;;
19207;SDS011;9737;59.466;18.036;2022-08-18T14:21:46;17.73;;;11.00;;
19207;SDS011;9737;59.466;18.036;2022-08-18T14:24:37;15.00;;;11.43;;
19207;SDS011;9737;59.466;18.036;2022-08-18T14:27:25;13.95;;;11.20;;
19207;SDS011;9737;59.466;18.036;2022-08-18T14:30:00;17.50;;;11.57;;
19207;SDS011;9737;59.466;18.036;2022-08-18T14:32:29;18.13;;;11.18;;
19207;SDS011;9737;59.466;18.036;2022-08-18T14:35:17;13.60;;;10.82;;
19207;SDS011;9737;59.466;18.036;2022-08-18T14:38:01;16.33;;;11.23;;
19207;SDS011;9737;59.466;18.036;2022-08-18T14:40:31;13.48;;;10.82;;
19207;SDS011;9737;59.466;18.036;2022-08-18T14:43:07;15.32;;;10.48;;
19207;SDS011;9737;59.466;18.036;2022-08-18T14:45:36;16.60;;;11.20;;
19207;SDS011;9737;59.466;18.036;2022-08-18T14:48:05;14.50;;;10.98;;
19207;SDS011;9737;59.466;18.036;2022-08-18T14:50:36;14.48;;;11.25;;
19207;SDS011;9737;59.466;18.036;2022-08-18T14:53:16;18.10;;;11.65;;
19207;SDS011;9737;59.466;18.036;2022-08-18T14:55:46;13.25;;;10.80;;
19207;SDS011;9737;59.466;18.036;2022-08-18T14:58:18;16.65;;;11.52;;
19207;SDS011;9737;59.466;18.036;2022-08-18T15:00:49;15.80;;;11.80;;
19207;SDS011;9737;59.466;18.036;2022-08-18T15:03:21;14.38;;;11.27;;
19207;SDS011;9737;59.466;18.036;2022-08-18T15:05:57;14.35;;;11.40;;
19207;SDS011;9737;59.466;18.036;2022-08-18T15:08:32;19.58;;;11.38;;
19207;SDS011;9737;59.466;18.036;2022-08-18T15:11:02;18.13;;;11.32;;
19207;SDS011;9737;59.466;18.036;2022-08-18T15:13:38;15.73;;;11.95;;
19207;SDS011;9737;59.466;18.036;2022-08-18T15:16:07;18.00;;;12.05;;
19207;SDS011;9737;59.466;18.036;2022-08-18T15:18:39;13.85;;;11.23;;
19207;SDS011;9737;59.466;18.036;2022-08-18T15:21:08;16.52;;;12.38;;
19207;SDS011;9737;59.466;18.036;2022-08-18T15:24:10;16.30;;;11.98;;
19207;SDS011;9737;59.466;18.036;2022-08-18T15:27:05;16.25;;;12.02;;
19207;SDS011;9737;59.466;18.036;2022-08-18T15:29:44;14.77;;;11.55;;
19207;SDS011;9737;59.466;18.036;2022-08-18T15:32:16;19.30;;;13.25;;
19207;SDS011;9737;59.466;18.036;2022-08-18T15:34:44;14.63;;;11.80;;
19207;SDS011;9737;59.466;18.036;2022-08-18T15:37:17;18.15;;;13.13;;